Ship Status Report: callsign BATEU06

sailwx.info

Track history (hours):
 
Tides and Currents Weather Stations Pressure Air Temp Water Temp Dewpoint Dewpoint Depression Visibility Wind Speed Wind Dir Waves Ship Positions

Callsign BATEU06 (name unknown)

Last reported at 2015-May-29 13:00 UTC. Time now 2015-May-30 16:31 UTC.
Position N 51°24' E 004°12'.

Wind from 230 at 18 knots

Barometer 1008.1 mb
Water temperature 16.2 ° C

Date/timePositionNaut miles runAvg speedWind from/ knotsBaromVisibWave heightAir tempDewpointWater temp
2015-May-29 13:00N 51°24' E 004°12'1111.2 230 / 181008.1 16.2
2015-May-29 12:00N 51°24' E 003°54'1111.2 240 / 151008.3 -0.8 15.7
2015-May-29 11:00N 51°24' E 003°36'1515.0 220 / 201008.5 -5.7 15.4
2015-May-29 10:00N 51°24' E 003°12'1918.7 240 / 171009.0 -8.7-12.115.4
2015-May-29 09:00N 51°24' E 002°42'1312.7 230 / 221009.3 -14.214.4
2015-May-29 08:00N 51°18' E 002°24'1616.2 240 / 181009.9 -16.513.5
2015-May-29 07:00N 51°12' E 002°00'1919.3 240 / 161010.6 -15.113.4
2015-May-29 06:00N 51°00' E 001°36'5217.4 240 / 151011.0 -18.413.4
2015-May-29 03:00N 50°24' E 000°36'2020.1 250 / 141013.1 12.7
2015-May-29 02:00N 50°18' E 000°06'1919.2 250 / 151013.8 12.7
2015-May-29 01:00N 50°18' W 000°24'1616.5 250 / 131014.4 12.7
2015-May-29 00:00N 50°12' W 000°48'2020.1 250 / 131015.1 -12.612.7
2015-May-28 23:00N 50°06' W 001°18'1716.5 260 / 161015.7 12.7
2015-May-28 22:00N 50°00' W 001°42'1515.4 260 / 161016.2 12.7
2015-May-28 21:00N 50°00' W 002°06'2020.2 270 / 161016.8 12.7
2015-May-28 20:00N 49°54' W 002°36'2020.3 260 / 161017.1 12.7
2015-May-28 19:00N 49°48' W 003°06'2020.3 260 / 181017.5 13.0
2015-May-28 18:00N 49°42' W 003°36'1919.4 270 / 191018.0 13.4
2015-May-28 17:00N 49°42' W 004°06'1919.4 270 / 171018.4 13.7
2015-May-28 16:00N 49°42' W 004°36'1919.4 270 / 171018.9 13.7
2015-May-28 15:00N 49°42' W 005°06'2020.3 280 / 141019.2 13.4
2015-May-28 14:00N 49°36' W 005°36'3919.4 290 / 121019.6 13.7
2015-May-28 12:00N 49°36' W 006°36'2020.3 300 / 91020.1 13.2
2015-May-28 11:00N 49°42' W 007°06'1615.5 290 / 131020.2 13.4
2015-May-28 10:00N 49°42' W 007°30'1919.4 290 / 141020.3 13.2
2015-May-28 09:00N 49°42' W 008°00'2020.3 290 / 161020.5 13.2
2015-May-28 08:00N 49°48' W 008°30'2323.2 290 / 161020.7 13.0
2015-May-28 07:00N 49°48' W 009°06'1919.4 290 / 141020.9 13.2
2015-May-28 06:00N 49°48' W 009°36'1919.4 290 / 151020.8 13.2
2015-May-28 05:00N 49°48' W 010°06'2424.0 290 / 141020.5 13.2
2015-May-28 04:00N 49°54' W 010°42'1919.3 290 / 141020.5 13.4
2015-May-28 03:00N 49°54' W 011°12'1919.3 290 / 141021.0 1.1 13.2
2015-May-28 02:00N 49°54' W 011°42'2323.2 300 / 151021.4 13.4
2015-May-28 01:00N 49°54' W 012°18'1919.3 290 / 161022.0 13.5
2015-May-28 00:00N 49°54' W 012°48'1919.3 290 / 161022.7 13.7
2015-May-27 23:00N 49°54' W 013°18'4321.4 290 / 161023.2 13.5
2015-May-27 21:00N 50°00' W 014°24'1919.3 290 / 151023.6 13.7
2015-May-27 20:00N 50°00' W 014°54'2323.1 290 / 141023.8 13.2
2015-May-27 19:00N 50°00' W 015°30'4221.2 280 / 181024.1 13.4
2015-May-27 17:00N 50°00' W 016°36'2020.2 280 / 171024.7 13.9
2015-May-27 16:00N 49°54' W 017°06'2323.2 270 / 201025.5 14.4
2015-May-27 15:00N 49°54' W 017°42'1919.3 280 / 201025.9 14.4
2015-May-27 14:00N 49°54' W 018°12'2323.2 260 / 191026.3 14.2
2015-May-27 13:00N 49°54' W 018°48'1919.3 260 / 151026.6 13.0
2015-May-27 12:00N 49°54' W 019°18'1919.3 260 / 171026.8 0.0 13.5
2015-May-27 11:00N 49°54' W 019°48'2424.0 260 / 171027.2 13.5
2015-May-27 10:00N 49°48' W 020°24'4321.3 260 / 181027.8 13.7
2015-May-27 08:00N 49°48' W 021°30'1919.4 250 / 191028.5 12.9
2015-May-27 07:00N 49°48' W 022°00'2424.0 240 / 181028.5 12.9
2015-May-27 06:00N 49°42' W 022°36'1919.4 240 / 191028.7 12.7
2015-May-27 05:00N 49°42' W 023°06'2020.3 250 / 211029.2 12.9
2015-May-27 04:00N 49°36' W 023°36'1919.4 240 / 211029.5 13.4
2015-May-27 03:00N 49°36' W 024°06'2323.3 240 / 201029.8 13.4
2015-May-27 02:00N 49°36' W 024°42'3919.7 240 / 211030.6 13.5
2015-May-27 00:00N 49°30' W 025°42'2424.2 230 / 181031.9 12.4
2015-May-26 23:00N 49°24' W 026°18'2019.5 220 / 181032.3 12.5
2015-May-26 22:00N 49°24' W 026°48'2424.2 220 / 181032.4 12.7
2015-May-26 21:00N 49°18' W 027°24'2019.6 220 / 181032.4 12.9
2015-May-26 20:00N 49°18' W 027°54'2020.5 220 / 171032.5 13.0
2015-May-26 19:00N 49°12' W 028°24'2424.3 220 / 171032.6 14.2
2015-May-26 18:00N 49°06' W 029°00'2019.6 220 / 171032.9 14.4
2015-May-26 17:00N 49°06' W 029°30'2120.6 220 / 181032.9 14.5
2015-May-26 16:00N 49°00' W 030°00'2424.4 210 / 171033.0 13.9
2015-May-26 15:00N 48°54' W 030°36'2019.7 210 / 181033.4 13.4
2015-May-26 14:00N 48°54' W 031°06'2120.6 210 / 191033.6 13.0
2015-May-26 13:00N 48°48' W 031°36'2120.7 210 / 181033.6 12.7
2015-May-26 12:00N 48°42' W 032°06'2120.7 210 / 181033.8 12.9
2015-May-26 11:00N 48°36' W 032°36'2423.8 210 / 181033.6 12.4
2015-May-26 10:00N 48°36' W 033°12'2120.7 210 / 181033.5 12.7
2015-May-26 09:00N 48°30' W 033°42'2120.8 210 / 191033.3 14.5
2015-May-26 08:00N 48°24' W 034°12'2120.8 210 / 181033.3 14.4
2015-May-26 07:00N 48°18' W 034°42'2524.7 200 / 191032.7 14.9
2015-May-26 06:00N 48°12' W 035°18'2120.9 200 / 181032.5 13.7
2015-May-26 05:00N 48°06' W 035°48'2120.9 190 / 151032.2 14.5
2015-May-26 04:00N 48°00' W 036°18'2121.0 190 / 121032.3 14.2
2015-May-26 03:00N 47°54' W 036°48'1717.2 150 / 121032.3 14.9
2015-May-26 02:00N 47°48' W 037°12'4221.1 130 / 91032.3 15.2
2015-May-26 00:00N 47°36' W 038°12'2121.1 140 / 91033.4 -22.4-23.114.7
2015-May-25 23:00N 47°30' W 038°42'2121.2 100 / 61032.6 12.410.716.2
2015-May-25 22:00N 47°24' W 039°12'1717.3 110 / 41032.8 12.4 8.916.2
2015-May-25 21:00N 47°18' W 039°36'2121.2 090 / 51032.2 5.4-0.616.2
2015-May-25 20:00N 47°12' W 040°06'2121.3 060 / 31032.4 0.4-6.016.5
2015-May-25 19:00N 47°06' W 040°36'2121.3 030 / 61032.6 -0.7-6.214.5
2015-May-25 18:00N 47°00' W 041°06'2121.3 050 / 51032.6 -3.0-8.2 9.9
2015-May-25 17:00N 46°54' W 041°36'1717.5 050 / 41032.9 -1.0-5.6 8.9
2015-May-25 16:00N 46°48' W 042°00'2423.8 040 / 21033.0 -2.7-7.2 8.9
2015-May-25 15:00N 46°36' W 042°30'2121.5 090 / 41032.8 -4.2-7.1 5.4
2015-May-25 14:00N 46°30' W 043°00'2221.5 110 / 51033.1 -5.3-8.0 6.2
2015-May-25 13:00N 46°24' W 043°30'2221.6 130 / 41033.2 -5.5-9.3 4.9
2015-May-25 12:00N 46°18' W 044°00'2020.5 180 / 61033.7 2.9-0.3 5.2
2015-May-25 11:00N 46°06' W 044°24'2221.7 200 / 21033.5 1.4-0.8 8.2
2015-May-25 10:00N 46°00' W 044°54'3919.7 210 / 41033.1 0.2-1.5 6.4
2015-May-25 08:00N 45°48' W 045°48'2221.8 250 / 81032.4 3.2 1.7 4.7
2015-May-25 07:00N 45°42' W 046°18'1817.8 210 / 91032.3 3.9 0.9 3.0
2015-May-25 06:00N 45°36' W 046°42'2424.2 210 / 101031.8 0.0 7.2 3.7 3.7
2015-May-25 05:00N 45°24' W 047°12'1817.9 210 / 101031.9 8.5 5.2 5.2
2015-May-25 04:00N 45°18' W 047°36'2222.0 200 / 101031.6 8.0 4.9 7.2
2015-May-25 03:00N 45°12' W 048°06'1818.0 210 / 91031.7 8.2 4.7 7.5
2015-May-25 02:00N 45°06' W 048°30'1716.9 240 / 121031.6 6.7 5.7 7.7
2015-May-25 01:00N 45°06' W 048°54'1716.9 210 / 131031.2 4.9 2.4 4.4
2015-May-25 00:00N 45°06' W 049°18'2121.2 220 / 131030.7 5.2 2.9 4.4
2015-May-24 23:00N 45°06' W 049°48'2121.2 210 / 131029.6 5.9 3.7 5.4
2015-May-24 22:00N 45°06' W 050°18'2121.2 210 / 141029.0 6.4 4.2 5.7
2015-May-24 21:00N 45°06' W 050°48'2121.2 210 / 141028.0 6.9 4.4 5.9
2015-May-24 20:00N 45°06' W 051°18'1818.0 220 / 171027.3 6.9 4.4 6.2
2015-May-24 19:00N 45°12' W 051°42'2222.0 220 / 181026.8 7.4 4.4 5.9
2015-May-24 18:00N 45°18' W 052°12'2221.9 230 / 191026.2 7.4 4.0 5.9
2015-May-24 17:00N 45°24' W 052°42'2121.1 220 / 191025.2 6.4 3.7 4.5
2015-May-24 16:00N 45°24' W 053°12'1817.9 230 / 191024.5 6.5 3.4 4.5
2015-May-24 15:00N 45°30' W 053°36'2221.8 230 / 191023.9 6.2 2.7 4.4
2015-May-24 14:00N 45°36' W 054°06'2121.0 240 / 201023.0 5.5 2.2 3.4
2015-May-24 13:00N 45°36' W 054°36'2221.8 240 / 191022.3 5.7 1.7 3.5
2015-May-24 12:00N 45°42' W 055°06'1817.8 240 / 231021.5 5.5 2.0 4.4
2015-May-24 11:00N 45°48' W 055°30'2120.6 220 / 241019.8 4.7 2.2 3.7
2015-May-24 10:00N 46°00' W 055°54'2424.0 240 / 211018.8 5.2 2.4 4.0
2015-May-24 09:00N 46°12' W 056°24'1817.6 240 / 221017.3 4.9 3.0 4.5
2015-May-24 08:00N 46°18' W 056°48'2020.4 240 / 201016.1 4.7 3.9 4.5
2015-May-24 07:00N 46°30' W 057°12'2020.4 260 / 281015.2 4.7 4.7 4.2
2015-May-24 06:00N 46°42' W 057°36'2121.4 250 / 321014.3 4.5 4.2 4.9
2015-May-24 05:00N 46°48' W 058°06'2020.3 260 / 231013.4 4.4 4.4 5.2
2015-May-24 04:00N 47°00' W 058°30'2020.3 260 / 201012.9 4.7 4.0 5.2
2015-May-24 03:00N 47°12' W 058°54'2020.2 260 / 201012.4 5.5 4.4 4.9
2015-May-24 02:00N 47°24' W 059°18'4120.3 200 / 211010.5 5.2 3.4 4.4
2015-May-24 00:00N 47°42' W 060°12'2020.1 210 / 231009.1 5.2 1.9 4.0
2015-May-23 23:00N 47°54' W 060°36'2121.0 190 / 211009.1 5.5 2.5 4.0
2015-May-23 22:00N 48°00' W 061°06'2020.0 200 / 181008.8 6.7 3.5 4.2
2015-May-23 21:00N 48°12' W 061°30'2020.0 210 / 121008.4 8.2 5.5 4.9
2015-May-23 20:00N 48°24' W 061°54'4321.5 290 / 41008.6 6.0 2.4 5.2
2015-May-23 18:00N 48°48' W 062°48'1716.9 270 / 131008.3 8.9 1.9 4.9
2015-May-23 17:00N 48°54' W 063°12'2323.1 300 / 201007.8 8.5 1.9 4.4
2015-May-23 16:00N 49°06' W 063°42'4522.4 300 / 211007.5 8.4 1.2 4.2
2015-May-23 14:00N 49°18' W 064°48'2020.4 270 / 251007.4 3.9-0.8 4.2
2015-May-23 13:00N 49°24' W 065°18'2323.4 260 / 301007.6 2.9-1.6 3.4
2015-May-23 12:00N 49°24' W 065°54'2020.4 250 / 201008.5 4.7-0.1 3.7
2015-May-23 11:00N 49°18' W 066°24'3718.6 250 / 211009.3 1.2-4.2 5.2
2015-May-23 09:00N 49°06' W 067°18'2120.6 270 / 171010.3 1.7-3.6 6.2
2015-May-23 08:00N 49°00' W 067°48'2019.8 270 / 161010.9 1.2-4.3 6.4
2015-May-23 07:00N 48°48' W 068°12'2019.9 260 / 141011.8 1.4-3.3 6.4
2015-May-23 06:00N 48°36' W 068°36'2019.9 280 / 121012.1 2.2-2.7 5.2
2015-May-23 05:00N 48°24' W 069°00'1717.0 360 / 61012.8 0.7-4.3 5.5
2015-May-23 04:00N 48°18' W 069°24'1414.4 280 / 151013.2 0.2-4.2 6.2
2015-May-23 03:00N 48°06' W 069°36'2019.7 280 / 141013.1 -3.3-7.3 4.0
2015-May-23 02:00N 47°48' W 069°48'1717.1 290 / 141012.6 -6.0-11.8 6.4
2015-May-23 01:00N 47°36' W 070°06'1717.1 290 / 101013.1 -3.8-9.5 7.0
2015-May-23 00:00N 47°24' W 070°24'1414.5 300 / 111012.7 -3.2-10.8 8.2
2015-May-22 23:00N 47°12' W 070°36'1514.5 1011.9 -2.8-11.113.2
2015-May-22 22:00N 47°00' W 070°48'1717.2 020 / 41012.4 -3.8-8.814.9
2015-May-22 21:00N 46°48' W 071°06'1413.7 100 / 51011.4 -2.2-8.515.2
2015-May-22 20:00N 46°42' W 071°24'1616.5 320 / 71011.7 -1.0-12.615.0
2015-May-22 19:00N 46°42' W 071°48'1413.7 310 / 91012.1 -1.2-12.114.7
2015-May-22 18:00N 46°36' W 072°06'1717.2 300 / 71011.9 -1.8-13.314.7
2015-May-22 17:00N 46°24' W 072°24'2412.0 300 / 71012.0 -2.8-14.014.9
2015-May-22 15:00N 46°12' W 072°54'1514.6 320 / 71011.8 -4.2-12.614.4
2015-May-22 14:00N 46°00' W 073°06'1514.6 330 / 71011.9 -5.2-11.114.4
2015-May-22 13:00N 45°48' W 073°18'1010.3 350 / 101011.1 -5.8-11.014.2
2015-May-22 12:00N 45°42' W 073°30'6 6.0 010 / 161010.1 -6.5-9.513.9
2015-May-22 11:00N 45°36' W 073°30'   350 / 91009.0 -3.3-7.113.9
2015-May-19 21:00N 45°36' W 073°30'7 7.3 220 / 271000.0 25.511.714.7
2015-May-19 20:00N 45°42' W 073°24'1312.7 240 / 221000.6 25.214.714.4
2015-May-19 19:00N 45°54' W 073°18'7 7.3 250 / 91002.2 22.2 14.5
2015-May-19 18:00N 46°00' W 073°12'1010.3 190 / 191002.8 23.5 2.915.2
2015-May-19 17:00N 46°06' W 073°00'2010.2 210 / 171004.1 21.9 14.9
2015-May-19 15:00N 46°18' W 072°36'1010.2 230 / 101006.0 18.9 15.4
2015-May-19 14:00N 46°24' W 072°24'1010.2 230 / 101006.5 17.9 15.2
2015-May-19 13:00N 46°30' W 072°12'   210 / 71007.0 19.0 15.2
Track history (hours):
 
Tides and Currents Weather Stations Pressure Air Temp Water Temp Dewpoint Dewpoint Depression Visibility Wind Speed Wind Dir Waves Ship Positions

Callsign BATEU06 (name unknown)

Last reported at 2015-May-29 13:00 UTC. Time now 2015-May-30 16:31 UTC.
Position N 51°24' E 004°12'.

Wind from 230 at 18 knots

Barometer 1008.1 mb
Water temperature 16.2 ° C

Date/timePositionNaut miles runAvg speedWind from/ knotsBaromVisibWave heightAir tempDewpointWater temp
2015-May-29 13:00N 51°24' E 004°12'1111.2 230 / 181008.1 16.2
2015-May-29 12:00N 51°24' E 003°54'1111.2 240 / 151008.3 -0.8 15.7
2015-May-29 11:00N 51°24' E 003°36'1515.0 220 / 201008.5 -5.7 15.4
2015-May-29 10:00N 51°24' E 003°12'1918.7 240 / 171009.0 -8.7-12.115.4
2015-May-29 09:00N 51°24' E 002°42'1312.7 230 / 221009.3 -14.214.4
2015-May-29 08:00N 51°18' E 002°24'1616.2 240 / 181009.9 -16.513.5
2015-May-29 07:00N 51°12' E 002°00'1919.3 240 / 161010.6 -15.113.4
2015-May-29 06:00N 51°00' E 001°36'5217.4 240 / 151011.0 -18.413.4
2015-May-29 03:00N 50°24' E 000°36'2020.1 250 / 141013.1 12.7
2015-May-29 02:00N 50°18' E 000°06'1919.2 250 / 151013.8 12.7
2015-May-29 01:00N 50°18' W 000°24'1616.5 250 / 131014.4 12.7
2015-May-29 00:00N 50°12' W 000°48'2020.1 250 / 131015.1 -12.612.7
2015-May-28 23:00N 50°06' W 001°18'1716.5 260 / 161015.7 12.7
2015-May-28 22:00N 50°00' W 001°42'1515.4 260 / 161016.2 12.7
2015-May-28 21:00N 50°00' W 002°06'2020.2 270 / 161016.8 12.7
2015-May-28 20:00N 49°54' W 002°36'2020.3 260 / 161017.1 12.7
2015-May-28 19:00N 49°48' W 003°06'2020.3 260 / 181017.5 13.0
2015-May-28 18:00N 49°42' W 003°36'1919.4 270 / 191018.0 13.4
2015-May-28 17:00N 49°42' W 004°06'1919.4 270 / 171018.4 13.7
2015-May-28 16:00N 49°42' W 004°36'1919.4 270 / 171018.9 13.7
2015-May-28 15:00N 49°42' W 005°06'2020.3 280 / 141019.2 13.4
2015-May-28 14:00N 49°36' W 005°36'3919.4 290 / 121019.6 13.7
2015-May-28 12:00N 49°36' W 006°36'2020.3 300 / 91020.1 13.2
2015-May-28 11:00N 49°42' W 007°06'1615.5 290 / 131020.2 13.4
2015-May-28 10:00N 49°42' W 007°30'1919.4 290 / 141020.3 13.2
2015-May-28 09:00N 49°42' W 008°00'2020.3 290 / 161020.5 13.2
2015-May-28 08:00N 49°48' W 008°30'2323.2 290 / 161020.7 13.0
2015-May-28 07:00N 49°48' W 009°06'1919.4 290 / 141020.9 13.2
2015-May-28 06:00N 49°48' W 009°36'1919.4 290 / 151020.8 13.2
2015-May-28 05:00N 49°48' W 010°06'2424.0 290 / 141020.5 13.2
2015-May-28 04:00N 49°54' W 010°42'1919.3 290 / 141020.5 13.4
2015-May-28 03:00N 49°54' W 011°12'1919.3 290 / 141021.0 1.1 13.2
2015-May-28 02:00N 49°54' W 011°42'2323.2 300 / 151021.4 13.4
2015-May-28 01:00N 49°54' W 012°18'1919.3 290 / 161022.0 13.5
2015-May-28 00:00N 49°54' W 012°48'1919.3 290 / 161022.7 13.7
2015-May-27 23:00N 49°54' W 013°18'4321.4 290 / 161023.2 13.5
2015-May-27 21:00N 50°00' W 014°24'1919.3 290 / 151023.6 13.7
2015-May-27 20:00N 50°00' W 014°54'2323.1 290 / 141023.8 13.2
2015-May-27 19:00N 50°00' W 015°30'4221.2 280 / 181024.1 13.4
2015-May-27 17:00N 50°00' W 016°36'2020.2 280 / 171024.7 13.9
2015-May-27 16:00N 49°54' W 017°06'2323.2 270 / 201025.5 14.4
2015-May-27 15:00N 49°54' W 017°42'1919.3 280 / 201025.9 14.4
2015-May-27 14:00N 49°54' W 018°12'2323.2 260 / 191026.3 14.2
2015-May-27 13:00N 49°54' W 018°48'1919.3 260 / 151026.6 13.0
2015-May-27 12:00N 49°54' W 019°18'1919.3 260 / 171026.8 0.0 13.5
2015-May-27 11:00N 49°54' W 019°48'2424.0 260 / 171027.2 13.5
2015-May-27 10:00N 49°48' W 020°24'4321.3 260 / 181027.8 13.7
2015-May-27 08:00N 49°48' W 021°30'1919.4 250 / 191028.5 12.9
2015-May-27 07:00N 49°48' W 022°00'2424.0 240 / 181028.5 12.9
2015-May-27 06:00N 49°42' W 022°36'1919.4 240 / 191028.7 12.7
2015-May-27 05:00N 49°42' W 023°06'2020.3 250 / 211029.2 12.9
2015-May-27 04:00N 49°36' W 023°36'1919.4 240 / 211029.5 13.4
2015-May-27 03:00N 49°36' W 024°06'2323.3 240 / 201029.8 13.4
2015-May-27 02:00N 49°36' W 024°42'3919.7 240 / 211030.6 13.5
2015-May-27 00:00N 49°30' W 025°42'2424.2 230 / 181031.9 12.4
2015-May-26 23:00N 49°24' W 026°18'2019.5 220 / 181032.3 12.5
2015-May-26 22:00N 49°24' W 026°48'2424.2 220 / 181032.4 12.7
2015-May-26 21:00N 49°18' W 027°24'2019.6 220 / 181032.4 12.9
2015-May-26 20:00N 49°18' W 027°54'2020.5 220 / 171032.5 13.0
2015-May-26 19:00N 49°12' W 028°24'2424.3 220 / 171032.6 14.2
2015-May-26 18:00N 49°06' W 029°00'2019.6 220 / 171032.9 14.4
2015-May-26 17:00N 49°06' W 029°30'2120.6 220 / 181032.9 14.5
2015-May-26 16:00N 49°00' W 030°00'2424.4 210 / 171033.0 13.9
2015-May-26 15:00N 48°54' W 030°36'2019.7 210 / 181033.4 13.4
2015-May-26 14:00N 48°54' W 031°06'2120.6 210 / 191033.6 13.0
2015-May-26 13:00N 48°48' W 031°36'2120.7 210 / 181033.6 12.7
2015-May-26 12:00N 48°42' W 032°06'2120.7 210 / 181033.8 12.9
2015-May-26 11:00N 48°36' W 032°36'2423.8 210 / 181033.6 12.4
2015-May-26 10:00N 48°36' W 033°12'2120.7 210 / 181033.5 12.7
2015-May-26 09:00N 48°30' W 033°42'2120.8 210 / 191033.3 14.5
2015-May-26 08:00N 48°24' W 034°12'2120.8 210 / 181033.3 14.4
2015-May-26 07:00N 48°18' W 034°42'2524.7 200 / 191032.7 14.9
2015-May-26 06:00N 48°12' W 035°18'2120.9 200 / 181032.5 13.7
2015-May-26 05:00N 48°06' W 035°48'2120.9 190 / 151032.2 14.5
2015-May-26 04:00N 48°00' W 036°18'2121.0 190 / 121032.3 14.2
2015-May-26 03:00N 47°54' W 036°48'1717.2 150 / 121032.3 14.9
2015-May-26 02:00N 47°48' W 037°12'4221.1 130 / 91032.3 15.2
2015-May-26 00:00N 47°36' W 038°12'2121.1 140 / 91033.4 -22.4-23.114.7
2015-May-25 23:00N 47°30' W 038°42'2121.2 100 / 61032.6 12.410.716.2
2015-May-25 22:00N 47°24' W 039°12'1717.3 110 / 41032.8 12.4 8.916.2
2015-May-25 21:00N 47°18' W 039°36'2121.2 090 / 51032.2 5.4-0.616.2
2015-May-25 20:00N 47°12' W 040°06'2121.3 060 / 31032.4 0.4-6.016.5
2015-May-25 19:00N 47°06' W 040°36'2121.3 030 / 61032.6 -0.7-6.214.5
2015-May-25 18:00N 47°00' W 041°06'2121.3 050 / 51032.6 -3.0-8.2 9.9
2015-May-25 17:00N 46°54' W 041°36'1717.5 050 / 41032.9 -1.0-5.6 8.9
2015-May-25 16:00N 46°48' W 042°00'2423.8 040 / 21033.0 -2.7-7.2 8.9
2015-May-25 15:00N 46°36' W 042°30'2121.5 090 / 41032.8 -4.2-7.1 5.4
2015-May-25 14:00N 46°30' W 043°00'2221.5 110 / 51033.1 -5.3-8.0 6.2
2015-May-25 13:00N 46°24' W 043°30'2221.6 130 / 41033.2 -5.5-9.3 4.9
2015-May-25 12:00N 46°18' W 044°00'2020.5 180 / 61033.7 2.9-0.3 5.2
2015-May-25 11:00N 46°06' W 044°24'2221.7 200 / 21033.5 1.4-0.8 8.2
2015-May-25 10:00N 46°00' W 044°54'3919.7 210 / 41033.1 0.2-1.5 6.4
2015-May-25 08:00N 45°48' W 045°48'2221.8 250 / 81032.4 3.2 1.7 4.7
2015-May-25 07:00N 45°42' W 046°18'1817.8 210 / 91032.3 3.9 0.9 3.0
2015-May-25 06:00N 45°36' W 046°42'2424.2 210 / 101031.8 0.0 7.2 3.7 3.7
2015-May-25 05:00N 45°24' W 047°12'1817.9 210 / 101031.9 8.5 5.2 5.2
2015-May-25 04:00N 45°18' W 047°36'2222.0 200 / 101031.6 8.0 4.9 7.2
2015-May-25 03:00N 45°12' W 048°06'1818.0 210 / 91031.7 8.2 4.7 7.5
2015-May-25 02:00N 45°06' W 048°30'1716.9 240 / 121031.6 6.7 5.7 7.7
2015-May-25 01:00N 45°06' W 048°54'1716.9 210 / 131031.2 4.9 2.4 4.4
2015-May-25 00:00N 45°06' W 049°18'2121.2 220 / 131030.7 5.2 2.9 4.4
2015-May-24 23:00N 45°06' W 049°48'2121.2 210 / 131029.6 5.9 3.7 5.4
2015-May-24 22:00N 45°06' W 050°18'2121.2 210 / 141029.0 6.4 4.2 5.7
2015-May-24 21:00N 45°06' W 050°48'2121.2 210 / 141028.0 6.9 4.4 5.9
2015-May-24 20:00N 45°06' W 051°18'1818.0 220 / 171027.3 6.9 4.4 6.2
2015-May-24 19:00N 45°12' W 051°42'2222.0 220 / 181026.8 7.4 4.4 5.9
2015-May-24 18:00N 45°18' W 052°12'2221.9 230 / 191026.2 7.4 4.0 5.9
2015-May-24 17:00N 45°24' W 052°42'2121.1 220 / 191025.2 6.4 3.7 4.5
2015-May-24 16:00N 45°24' W 053°12'1817.9 230 / 191024.5 6.5 3.4 4.5
2015-May-24 15:00N 45°30' W 053°36'2221.8 230 / 191023.9 6.2 2.7 4.4
2015-May-24 14:00N 45°36' W 054°06'2121.0 240 / 201023.0 5.5 2.2 3.4
2015-May-24 13:00N 45°36' W 054°36'2221.8 240 / 191022.3 5.7 1.7 3.5
2015-May-24 12:00N 45°42' W 055°06'1817.8 240 / 231021.5 5.5 2.0 4.4
2015-May-24 11:00N 45°48' W 055°30'2120.6 220 / 241019.8 4.7 2.2 3.7
2015-May-24 10:00N 46°00' W 055°54'2424.0 240 / 211018.8 5.2 2.4 4.0
2015-May-24 09:00N 46°12' W 056°24'1817.6 240 / 221017.3 4.9 3.0 4.5
2015-May-24 08:00N 46°18' W 056°48'2020.4 240 / 201016.1 4.7 3.9 4.5
2015-May-24 07:00N 46°30' W 057°12'2020.4 260 / 281015.2 4.7 4.7 4.2
2015-May-24 06:00N 46°42' W 057°36'2121.4 250 / 321014.3 4.5 4.2 4.9
2015-May-24 05:00N 46°48' W 058°06'2020.3 260 / 231013.4 4.4 4.4 5.2
2015-May-24 04:00N 47°00' W 058°30'2020.3 260 / 201012.9 4.7 4.0 5.2
2015-May-24 03:00N 47°12' W 058°54'2020.2 260 / 201012.4 5.5 4.4 4.9
2015-May-24 02:00N 47°24' W 059°18'4120.3 200 / 211010.5 5.2 3.4 4.4
2015-May-24 00:00N 47°42' W 060°12'2020.1 210 / 231009.1 5.2 1.9 4.0
2015-May-23 23:00N 47°54' W 060°36'2121.0 190 / 211009.1 5.5 2.5 4.0
2015-May-23 22:00N 48°00' W 061°06'2020.0 200 / 181008.8 6.7 3.5 4.2
2015-May-23 21:00N 48°12' W 061°30'2020.0 210 / 121008.4 8.2 5.5 4.9
2015-May-23 20:00N 48°24' W 061°54'4321.5 290 / 41008.6 6.0 2.4 5.2
2015-May-23 18:00N 48°48' W 062°48'1716.9 270 / 131008.3 8.9 1.9 4.9
2015-May-23 17:00N 48°54' W 063°12'2323.1 300 / 201007.8 8.5 1.9 4.4
2015-May-23 16:00N 49°06' W 063°42'4522.4 300 / 211007.5 8.4 1.2 4.2
2015-May-23 14:00N 49°18' W 064°48'2020.4 270 / 251007.4 3.9-0.8 4.2
2015-May-23 13:00N 49°24' W 065°18'2323.4 260 / 301007.6 2.9-1.6 3.4
2015-May-23 12:00N 49°24' W 065°54'2020.4 250 / 201008.5 4.7-0.1 3.7
2015-May-23 11:00N 49°18' W 066°24'3718.6 250 / 211009.3 1.2-4.2 5.2
2015-May-23 09:00N 49°06' W 067°18'2120.6 270 / 171010.3 1.7-3.6 6.2
2015-May-23 08:00N 49°00' W 067°48'2019.8 270 / 161010.9 1.2-4.3 6.4
2015-May-23 07:00N 48°48' W 068°12'2019.9 260 / 141011.8 1.4-3.3 6.4
2015-May-23 06:00N 48°36' W 068°36'2019.9 280 / 121012.1 2.2-2.7 5.2
2015-May-23 05:00N 48°24' W 069°00'1717.0 360 / 61012.8 0.7-4.3 5.5
2015-May-23 04:00N 48°18' W 069°24'1414.4 280 / 151013.2 0.2-4.2 6.2
2015-May-23 03:00N 48°06' W 069°36'2019.7 280 / 141013.1 -3.3-7.3 4.0
2015-May-23 02:00N 47°48' W 069°48'1717.1 290 / 141012.6 -6.0-11.8 6.4
2015-May-23 01:00N 47°36' W 070°06'1717.1 290 / 101013.1 -3.8-9.5 7.0
2015-May-23 00:00N 47°24' W 070°24'1414.5 300 / 111012.7 -3.2-10.8 8.2
2015-May-22 23:00N 47°12' W 070°36'1514.5 1011.9 -2.8-11.113.2
2015-May-22 22:00N 47°00' W 070°48'1717.2 020 / 41012.4 -3.8-8.814.9
2015-May-22 21:00N 46°48' W 071°06'1413.7 100 / 51011.4 -2.2-8.515.2
2015-May-22 20:00N 46°42' W 071°24'1616.5 320 / 71011.7 -1.0-12.615.0
2015-May-22 19:00N 46°42' W 071°48'1413.7 310 / 91012.1 -1.2-12.114.7
2015-May-22 18:00N 46°36' W 072°06'1717.2 300 / 71011.9 -1.8-13.314.7
2015-May-22 17:00N 46°24' W 072°24'2412.0 300 / 71012.0 -2.8-14.014.9
2015-May-22 15:00N 46°12' W 072°54'1514.6 320 / 71011.8 -4.2-12.614.4
2015-May-22 14:00N 46°00' W 073°06'1514.6 330 / 71011.9 -5.2-11.114.4
2015-May-22 13:00N 45°48' W 073°18'1010.3 350 / 101011.1 -5.8-11.014.2
2015-May-22 12:00N 45°42' W 073°30'6 6.0 010 / 161010.1 -6.5-9.513.9
2015-May-22 11:00N 45°36' W 073°30'   350 / 91009.0 -3.3-7.113.9
2015-May-19 21:00N 45°36' W 073°30'7 7.3 220 / 271000.0 25.511.714.7
2015-May-19 20:00N 45°42' W 073°24'1312.7 240 / 221000.6 25.214.714.4
2015-May-19 19:00N 45°54' W 073°18'7 7.3 250 / 91002.2 22.2 14.5
2015-May-19 18:00N 46°00' W 073°12'1010.3 190 / 191002.8 23.5 2.915.2
2015-May-19 17:00N 46°06' W 073°00'2010.2 210 / 171004.1 21.9 14.9
2015-May-19 15:00N 46°18' W 072°36'1010.2 230 / 101006.0 18.9 15.4
2015-May-19 14:00N 46°24' W 072°24'1010.2 230 / 101006.5 17.9 15.2
2015-May-19 13:00N 46°30' W 072°12'   210 / 71007.0 19.0 15.2

Dump ship's entire track history